Time;durP1;ratioP1;P1;durP2;ratioP2;P2;SDS_P1;SDS_P2;PMS_P1;PMS_P2;Temp;Humidity;BMP_temperature;BMP_pressure;BME280_temperature;BME280_humidity;BME280_pressure;Samples;Min_cycle;Max_cycle;Signal;HPM_P1;HPM_P2
2023/03/23 00:02:29;;;;;;;;;4.67;4.67;;;;;17.81;43.66;99740.69;5058154;28;45469;-75
2023/03/23 00:04:55;;;;;;;;;6.00;5.00;;;;;17.84;43.57;99735.38;5068880;28;45444;-75
2023/03/23 00:07:22;;;;;;;;;5.67;5.67;;;;;17.79;43.77;99726.63;5055667;28;45475;-74
2023/03/23 00:09:55;;;;;;;;;6.00;5.33;;;;;17.86;43.52;99733.59;5055934;28;45367;-75
2023/03/23 00:12:32;;;;;;;;;5.00;5.00;;;;;17.82;42.84;99729.19;5055858;28;45502;-75
2023/03/23 00:15:05;;;;;;;;;5.67;5.67;;;;;17.79;43.77;99708.13;5055378;28;46197;-74
2023/03/23 00:17:34;;;;;;;;;6.50;4.75;;;;;17.83;44.15;99716.00;5053703;28;45569;-76
2023/03/23 00:20:04;;;;;;;;;4.67;4.00;;;;;17.83;43.71;99707.19;5056351;28;45511;-74
2023/03/23 00:22:29;;;;;;;;;4.00;4.00;;;;;17.82;42.98;99702.78;5057487;28;45439;-74
2023/03/23 00:24:55;;;;;;;;;7.00;6.00;;;;;17.86;43.04;99700.09;5055203;28;46119;-75
2023/03/23 00:27:22;;;;;;;;;4.33;4.33;;;;;17.90;43.29;99700.94;5055668;28;45378;-76
2023/03/23 00:29:55;;;;;;;;;5.00;4.67;;;;;17.86;42.62;99702.75;5055525;28;45472;-75
2023/03/23 00:32:28;;;;;;;;;5.00;5.00;;;;;17.93;42.98;99716.78;5058886;28;45640;-75
2023/03/23 00:35:00;;;;;;;;;4.00;3.67;;;;;17.94;42.99;99715.84;5063411;28;45541;-74
2023/03/23 00:37:26;;;;;;;;;5.33;4.67;;;;;18.00;42.58;99723.69;5056945;28;45423;-76
2023/03/23 00:39:57;;;;;;;;;4.00;4.00;;;;;17.99;43.82;99729.91;5055178;28;45502;-75
2023/03/23 00:42:23;;;;;;;;;6.33;4.67;;;;;17.93;43.53;99719.41;5058533;28;45430;-76
2023/03/23 00:44:49;;;;;;;;;4.67;4.67;;;;;17.95;44.05;99730.84;5066435;28;45627;-73
2023/03/23 00:47:17;;;;;;;;;4.33;3.67;;;;;17.86;43.57;99725.66;5055484;28;45518;-75
2023/03/23 00:49:42;;;;;;;;;5.00;4.67;;;;;17.95;44.19;99729.97;5068298;28;45577;-74
2023/03/23 00:52:10;;;;;;;;;6.00;4.67;;;;;18.01;43.29;99729.88;5056826;28;45611;-75
2023/03/23 00:54:37;;;;;;;;;6.33;4.67;;;;;17.99;43.30;99727.25;5054916;28;45360;-74
2023/03/23 00:57:05;;;;;;;;;6.67;6.67;;;;;18.05;43.34;99732.47;5055382;28;45509;-76
2023/03/23 00:59:31;;;;;;;;;5.33;4.33;;;;;17.93;43.20;99711.50;5055724;28;45508;-75
2023/03/23 01:01:56;;;;;;;;;6.33;4.67;;;;;17.99;43.03;99740.47;5056103;28;45342;-75
2023/03/23 01:04:22;;;;;;;;;5.00;4.33;;;;;18.02;42.57;99735.13;5056310;28;46225;-75
2023/03/23 01:06:50;;;;;;;;;4.33;4.33;;;;;18.00;41.61;99723.69;5057119;28;45485;-75
2023/03/23 01:09:16;;;;;;;;;2.67;2.67;;;;;18.05;42.22;99718.38;5055077;28;45466;-76
2023/03/23 01:11:46;;;;;;;;;5.00;4.00;;;;;18.13;41.86;99729.72;5054935;28;45394;-75
2023/03/23 01:14:14;;;;;;;;;5.00;4.67;;;;;18.12;42.03;99716.50;5054314;28;45469;-73
2023/03/23 01:16:40;;;;;;;;;4.33;3.67;;;;;18.11;41.77;99714.78;5055664;28;45704;-75
2023/03/23 01:19:05;;;;;;;;;5.00;4.33;;;;;18.17;41.60;99717.34;5053108;28;45560;-75
2023/03/23 01:21:31;;;;;;;;;5.67;5.00;;;;;18.22;41.40;99719.03;5059455;28;45399;-76
2023/03/23 01:23:57;;;;;;;;;5.00;5.00;;;;;18.25;41.18;99718.09;5071807;28;45382;-76
2023/03/23 01:26:26;;;;;;;;;6.33;5.00;;;;;18.28;41.35;99731.25;5061234;28;45405;-75
2023/03/23 01:28:52;;;;;;;;;5.33;5.33;;;;;18.31;41.20;99715.34;5052551;28;45574;-75
2023/03/23 01:31:20;;;;;;;;;4.67;4.67;;;;;18.36;41.29;99720.56;5054908;28;45720;-76
2023/03/23 01:33:46;;;;;;;;;5.00;5.00;;;;;18.37;40.62;99725.84;5054907;28;45327;-76
2023/03/23 01:36:17;;;;;;;;;5.67;4.67;;;;;18.45;40.59;99731.88;5055186;28;45367;-76
2023/03/23 01:38:45;;;;;;;;;5.33;5.33;;;;;18.52;40.48;99731.78;5052614;28;45517;-75
2023/03/23 01:41:12;;;;;;;;;4.00;4.00;;;;;18.61;39.91;99729.00;5054705;28;45270;-75
2023/03/23 01:43:57;;;;;;;;;6.00;5.00;;;;;18.65;39.73;99709.53;5053168;28;45463;-75
2023/03/23 01:46:25;;;;;;;;;5.67;5.00;;;;;18.78;39.07;99720.78;5031236;28;45438;-75
2023/03/23 01:48:51;;;;;;;;;6.67;5.67;;;;;18.84;39.51;99699.53;5055133;28;46481;-76
2023/03/23 01:51:20;;;;;;;;;5.00;5.00;;;;;18.93;39.38;99714.38;5055016;28;45513;-75
2023/03/23 01:53:53;;;;;;;;;4.67;4.67;;;;;19.01;39.03;99704.53;5053758;28;46218;-76
2023/03/23 01:56:26;;;;;;;;;5.00;5.00;;;;;19.07;39.07;99710.59;5058462;28;45588;-74
2023/03/23 01:58:53;;;;;;;;;4.00;4.00;;;;;19.15;38.89;99722.81;5059265;28;45624;-73
2023/03/23 02:01:21;;;;;;;;;6.33;6.00;;;;;19.18;39.17;99728.03;5056088;28;45531;-75
2023/03/23 02:03:48;;;;;;;;;4.67;4.67;;;;;19.22;39.07;99721.81;5057625;28;46067;-76
2023/03/23 02:06:14;;;;;;;;;5.00;4.67;;;;;19.26;38.76;99712.91;5070554;28;45573;-76
2023/03/23 02:08:43;;;;;;;;;6.67;5.00;;;;;19.29;38.87;99710.19;5039477;28;46136;-75
2023/03/23 02:11:14;;;;;;;;;6.00;5.00;;;;;19.35;38.69;99714.50;5057842;28;45730;-75
2023/03/23 02:13:41;;;;;;;;;2.67;2.67;;;;;19.37;38.79;99707.41;5058819;28;46137;-75
2023/03/23 02:16:18;;;;;;;;;5.00;5.00;;;;;19.36;38.58;99711.81;5057145;28;45406;-76
2023/03/23 02:19:09;;;;;;;;;2.67;2.67;;;;;19.37;37.97;99715.34;5059778;28;45501;-76
2023/03/23 02:21:34;;;;;;;;;8.33;8.00;;;;;19.41;37.49;99695.84;5058805;28;45425;-74
2023/03/23 02:24:15;;;;;;;;;5.00;4.33;;;;;19.42;37.29;99697.59;5064004;28;45472;-75
2023/03/23 02:26:50;;;;;;;;;5.67;5.67;;;;;19.43;36.68;99696.69;5065897;28;45486;-76
2023/03/23 02:29:34;;;;;;;;;4.00;4.00;;;;;19.46;37.24;99699.28;5056121;28;45602;-76
2023/03/23 02:32:21;;;;;;;;;5.33;5.33;;;;;19.47;36.93;99687.75;5056020;28;45474;-74
2023/03/23 02:34:56;;;;;;;;;2.67;2.33;;;;;19.40;36.91;99683.50;5060552;28;45414;-76
2023/03/23 02:37:36;;;;;;;;;5.00;5.00;;;;;19.52;37.31;99699.16;5059432;28;45438;-76
2023/03/23 02:40:11;;;;;;;;;4.33;4.33;;;;;19.53;37.08;99694.72;5065694;28;45307;-76
2023/03/23 02:42:42;;;;;;;;;6.00;6.00;;;;;19.50;36.13;99682.41;5070601;28;45429;-75
2023/03/23 02:45:10;;;;;;;;;5.67;4.00;;;;;19.56;36.61;99694.66;5069916;28;45426;-73
2023/03/23 02:47:39;;;;;;;;;5.00;5.00;;;;;19.51;36.38;99686.81;5055518;28;45838;-74
2023/03/23 02:50:10;;;;;;;;;3.00;3.00;;;;;19.58;36.34;99690.22;5057780;28;45517;-76
2023/03/23 02:52:40;;;;;;;;;5.00;4.33;;;;;19.58;36.55;99683.13;5070602;28;45514;-72
2023/03/23 02:55:11;;;;;;;;;4.67;4.67;;;;;19.62;36.20;99692.75;5049439;28;45538;-71
2023/03/23 02:57:37;;;;;;;;;4.00;4.00;;;;;19.64;36.52;99692.72;5064958;28;46653;-74
2023/03/23 03:00:09;;;;;;;;;5.00;5.00;;;;;19.60;36.45;99691.91;5057368;28;45507;-75
2023/03/23 03:02:40;;;;;;;;;5.00;4.33;;;;;19.63;36.31;99693.63;5053793;28;45608;-76
2023/03/23 03:05:35;;;;;;;;;5.00;4.67;;;;;19.64;36.16;99711.28;5056974;28;45301;-70
2023/03/23 03:08:18;;;;;;;;;3.00;3.00;;;;;19.64;35.84;99700.69;5055472;28;45412;-76
2023/03/23 03:11:08;;;;;;;;;5.00;4.33;;;;;19.66;36.03;99714.78;5055886;28;45518;-75
2023/03/23 03:13:47;;;;;;;;;4.33;3.33;;;;;19.65;35.67;99716.53;5054902;28;45413;-75
2023/03/23 03:16:51;;;;;;;;;5.67;5.67;;;;;19.68;35.72;99720.91;5054039;28;45649;-74
2023/03/23 03:19:25;;;;;;;;;4.00;4.00;;;;;19.68;36.12;99724.44;5025200;28;45464;-74
2023/03/23 03:21:53;;;;;;;;;5.67;5.67;;;;;19.63;35.79;99720.97;5056833;28;45567;-76
2023/03/23 03:24:21;;;;;;;;;6.00;5.00;;;;;19.66;35.99;99731.53;5056948;28;45314;-76
2023/03/23 03:26:51;;;;;;;;;5.00;4.33;;;;;19.63;36.24;99739.53;5056513;28;45403;-76
2023/03/23 03:29:32;;;;;;;;;5.67;4.67;;;;;19.67;35.09;99748.28;5058259;28;45340;-76
2023/03/23 03:31:59;;;;;;;;;5.00;4.67;;;;;19.66;35.27;99747.44;5058408;28;45500;-75
2023/03/23 03:34:25;;;;;;;;;4.67;4.67;;;;;19.68;35.40;99755.34;5057216;28;45402;-75
2023/03/23 03:36:54;;;;;;;;;4.33;4.33;;;;;19.67;35.23;99753.59;5073052;28;46042;-75
2023/03/23 03:39:21;;;;;;;;;4.67;4.67;;;;;19.68;35.07;99760.66;5068672;28;45351;-75
2023/03/23 03:41:47;;;;;;;;;5.00;4.67;;;;;19.63;35.41;99752.78;5090503;28;45515;-74
2023/03/23 03:44:13;;;;;;;;;3.67;3.67;;;;;19.67;35.45;99745.66;5082274;28;44679;-72
2023/03/23 03:46:38;;;;;;;;;5.00;5.00;;;;;19.62;35.64;99743.09;5097970;28;45574;-74
2023/03/23 03:49:06;;;;;;;;;4.00;4.00;;;;;19.65;36.17;99748.31;5078127;28;45560;-76
2023/03/23 03:51:34;;;;;;;;;4.33;4.33;;;;;19.63;35.97;99747.47;5060451;28;45500;-76
2023/03/23 03:54:00;;;;;;;;;6.67;6.00;;;;;19.60;36.21;99746.69;5059968;28;45304;-76
2023/03/23 03:56:26;;;;;;;;;4.00;4.00;;;;;19.58;36.17;99744.06;5078003;28;45482;-76
2023/03/23 03:58:52;;;;;;;;;4.67;4.00;;;;;19.56;35.90;99742.34;5078354;28;45721;-76
2023/03/23 04:01:22;;;;;;;;;4.00;4.00;;;;;19.55;35.70;99732.66;5078573;28;45304;-76
2023/03/23 04:03:49;;;;;;;;;4.00;3.33;;;;;19.55;35.42;99741.47;5078947;28;45320;-76
2023/03/23 04:06:15;;;;;;;;;3.00;3.00;;;;;19.50;35.72;99738.06;5061963;28;46123;-75
2023/03/23 04:08:42;;;;;;;;;4.67;4.00;;;;;19.45;35.55;99737.25;5056484;28;45591;-76
2023/03/23 04:11:10;;;;;;;;;3.67;3.67;;;;;19.49;34.79;99749.53;5039724;28;45792;-76
2023/03/23 04:13:36;;;;;;;;;4.00;4.00;;;;;19.47;35.57;99736.31;5058424;28;45461;-76
2023/03/23 04:16:02;;;;;;;;;5.00;4.00;;;;;19.44;35.47;99724.94;5057712;28;45505;-76
2023/03/23 04:18:29;;;;;;;;;5.33;4.00;;;;;19.43;35.51;99724.03;5057657;28;45439;-74
2023/03/23 04:20:58;;;;;;;;;4.00;3.00;;;;;19.47;35.46;99719.56;5057125;28;45368;-76
2023/03/23 04:23:26;;;;;;;;;4.00;4.00;;;;;19.44;35.66;99711.69;5057825;28;45520;-73
2023/03/23 04:25:56;;;;;;;;;5.00;4.00;;;;;19.44;35.50;99709.91;5057588;28;46002;-76
2023/03/23 04:28:23;;;;;;;;;6.00;5.00;;;;;19.45;35.45;99710.75;5057490;28;45482;-75
2023/03/23 04:30:55;;;;;;;;;4.33;4.33;;;;;19.44;35.29;99709.03;5039537;28;45362;-76
2023/03/23 04:33:26;;;;;;;;;4.00;4.00;;;;;19.44;35.17;99707.25;5057780;28;45441;-76
2023/03/23 04:35:56;;;;;;;;;3.00;3.00;;;;;19.43;34.84;99697.53;5067591;28;46052;-75
2023/03/23 04:38:24;;;;;;;;;5.33;5.00;;;;;19.38;35.09;99699.44;5076811;28;45469;-76
2023/03/23 04:40:52;;;;;;;;;5.67;4.67;;;;;19.42;35.07;99718.78;5051186;28;45442;-75
2023/03/23 04:43:21;;;;;;;;;4.33;4.00;;;;;19.41;35.54;99717.03;5044820;28;45511;-75
2023/03/23 04:45:56;;;;;;;;;5.00;4.00;;;;;19.38;35.71;99711.81;5056404;28;46062;-76
2023/03/23 04:48:24;;;;;;;;;4.00;4.00;;;;;19.36;35.97;99717.13;5072806;28;45465;-75
2023/03/23 04:50:50;;;;;;;;;4.00;4.00;;;;;19.34;36.24;99718.03;5038145;28;45539;-76
2023/03/23 04:53:17;;;;;;;;;6.00;4.00;;;;;19.31;36.01;99718.13;5065606;28;45477;-76
2023/03/23 04:55:44;;;;;;;;;3.00;2.67;;;;;19.22;36.55;99714.75;5075914;28;45513;-74
2023/03/23 04:58:12;;;;;;;;;3.67;3.00;;;;;19.24;36.12;99731.47;5076335;28;45378;-76
2023/03/23 05:00:38;;;;;;;;;2.67;2.67;;;;;19.19;36.15;99724.50;5064281;28;46212;-75
2023/03/23 05:03:03;;;;;;;;;2.67;2.67;;;;;19.20;35.93;99731.53;5038766;28;45529;-75
2023/03/23 05:05:30;;;;;;;;;3.33;3.33;;;;;19.16;36.09;99733.38;5064085;28;45426;-76
2023/03/23 05:07:56;;;;;;;;;4.00;4.00;;;;;19.08;36.00;99730.88;5059239;28;45564;-74
2023/03/23 05:10:22;;;;;;;;;4.33;3.67;;;;;19.09;35.70;99742.34;5069945;28;45420;-76
2023/03/23 05:12:48;;;;;;;;;3.00;3.00;;;;;18.95;35.72;99715.25;5068164;28;46154;-74
2023/03/23 05:15:16;;;;;;;;;3.00;3.00;;;;;19.02;35.95;99744.22;5076473;28;45521;-75
2023/03/23 05:17:45;;;;;;;;;3.00;3.00;;;;;18.97;35.58;99730.19;5059997;28;45457;-76
2023/03/23 05:20:13;;;;;;;;;4.00;4.00;;;;;19.03;35.02;99734.50;5069514;28;45517;-76
2023/03/23 05:22:38;;;;;;;;;3.00;3.00;;;;;19.04;35.33;99736.25;5068948;28;45352;-76
2023/03/23 05:25:08;;;;;;;;;4.00;4.00;;;;;19.00;35.77;99721.31;5057630;28;45980;-74
2023/03/23 05:27:35;;;;;;;;;5.00;4.00;;;;;18.97;35.54;99726.66;5056085;28;45574;-74
2023/03/23 05:30:01;;;;;;;;;3.67;3.67;;;;;18.93;35.69;99731.13;5055663;28;45509;-75
2023/03/23 05:32:30;;;;;;;;;4.33;3.67;;;;;18.90;35.64;99743.53;5056120;28;45283;-74
2023/03/23 05:34:57;;;;;;;;;3.67;3.67;;;;;18.81;35.92;99734.88;5060325;28;46126;-75
2023/03/23 05:37:24;;;;;;;;;3.33;3.00;;;;;18.82;35.85;99747.22;5059659;27;45692;-75
2023/03/23 05:39:54;;;;;;;;;3.00;3.00;;;;;18.77;36.00;99737.56;5068493;28;45536;-72
2023/03/23 05:42:23;;;;;;;;;3.67;3.67;;;;;18.72;36.22;99740.28;5064289;28;45489;-75
2023/03/23 05:44:49;;;;;;;;;3.33;3.33;;;;;18.59;35.89;99718.44;5071743;28;46066;-75
2023/03/23 05:47:15;;;;;;;;;3.00;3.00;;;;;18.59;35.98;99742.25;5059198;28;45582;-75
2023/03/23 05:49:41;;;;;;;;;4.00;3.33;;;;;18.52;36.11;99734.44;5068977;28;45291;-74
2023/03/23 05:52:07;;;;;;;;;5.00;4.00;;;;;18.53;35.79;99744.13;5064574;28;45616;-74
2023/03/23 05:54:33;;;;;;;;;3.33;2.67;;;;;18.42;36.29;99736.34;5042032;28;45618;-75
2023/03/23 05:56:59;;;;;;;;;4.00;4.00;;;;;18.39;36.32;99742.53;5070791;28;45268;-75
2023/03/23 05:59:25;;;;;;;;;4.33;4.00;;;;;18.36;36.65;99741.72;5063066;28;45514;-75
2023/03/23 06:01:53;;;;;;;;;3.67;3.67;;;;;18.27;36.75;99742.72;5040856;28;45500;-73
2023/03/23 06:04:19;;;;;;;;;4.67;3.67;;;;;18.26;36.61;99748.91;5058283;28;46164;-73
2023/03/23 06:06:45;;;;;;;;;4.33;3.67;;;;;18.20;37.07;99751.63;5057954;28;45457;-69
2023/03/23 06:09:11;;;;;;;;;5.67;5.33;;;;;18.15;36.97;99757.00;5057789;28;45459;-71
2023/03/23 06:11:36;;;;;;;;;12.25;12.25;;;;;18.13;37.01;99757.91;5057747;28;45909;-69
2023/03/23 06:14:02;;;;;;;;;68.00;54.25;;;;;18.00;37.07;99739.56;5071897;28;46155;-73
2023/03/23 06:16:28;;;;;;;;;30.25;29.25;;;;;18.03;37.12;99755.38;5058287;28;45706;-74
2023/03/23 06:18:54;;;;;;;;;13.50;13.00;;;;;18.03;37.08;99758.03;5060008;28;45474;-72
2023/03/23 06:21:21;;;;;;;;;9.33;8.67;;;;;18.05;37.08;99750.09;5057990;28;45477;-73
2023/03/23 06:23:47;;;;;;;;;19.25;19.25;;;;;18.04;37.01;99754.47;5057682;28;46170;-71
2023/03/23 06:26:16;;;;;;;;;32.00;30.25;;;;;18.04;36.91;99761.53;5058734;28;45764;-73
2023/03/23 06:28:42;;;;;;;;;9.67;8.67;;;;;18.02;36.93;99753.63;5058492;28;45442;-74
2023/03/23 06:31:08;;;;;;;;;4.33;4.33;;;;;18.01;37.36;99754.53;5059662;28;45315;-75
2023/03/23 06:33:35;;;;;;;;;6.33;5.00;;;;;18.00;37.09;99751.91;5059325;28;45352;-75
2023/03/23 06:36:02;;;;;;;;;11.00;11.00;;;;;18.05;37.00;99758.88;5058580;28;45379;-69
2023/03/23 06:38:27;;;;;;;;;10.25;10.25;;;;;18.05;37.09;99764.16;5040638;28;45452;-70
2023/03/23 06:40:53;;;;;;;;;6.67;6.67;;;;;18.06;37.26;99765.03;5061904;28;45362;-70
2023/03/23 06:43:20;;;;;;;;;8.00;8.00;;;;;18.06;37.27;99768.56;5070741;28;46574;-68
2023/03/23 06:45:45;;;;;;;;;12.00;8.67;;;;;18.06;37.11;99770.31;5058686;28;45855;-72
2023/03/23 06:48:12;;;;;;;;;9.33;8.67;;;;;18.07;37.00;99770.31;5074016;28;45473;-70
2023/03/23 06:50:37;;;;;;;;;5.33;5.33;;;;;18.06;37.45;99763.28;5075019;28;45616;-71
2023/03/23 06:53:03;;;;;;;;;7.00;6.67;;;;;18.11;37.42;99773.78;5064917;28;45528;-76
2023/03/23 06:55:28;;;;;;;;;9.33;9.00;;;;;18.08;37.23;99774.72;5077977;28;45564;-75
2023/03/23 06:57:54;;;;;;;;;8.33;8.33;;;;;18.20;37.08;99788.66;5077422;27;45364;-75
2023/03/23 07:00:20;;;;;;;;;17.25;15.50;;;;;18.31;37.39;99799.09;5061746;28;45261;-76
2023/03/23 07:02:46;;;;;;;;;6.33;6.33;;;;;18.34;37.34;99784.03;5078412;28;45552;-75
2023/03/23 07:05:12;;;;;;;;;7.00;7.00;;;;;18.50;36.89;99797.91;5063814;27;45688;-76
2023/03/23 07:07:39;;;;;;;;;4.00;4.00;;;;;18.60;37.00;99783.69;5052578;28;45181;-73
2023/03/23 07:10:08;;;;;;;;;16.75;16.75;;;;;20.36;35.46;99804.34;5057100;28;45530;-74
2023/03/23 07:12:35;;;;;;;;;11.67;9.00;;;;;21.84;32.68;99781.19;5057628;28;45988;-73
2023/03/23 07:15:02;;;;;;;;;5.00;5.00;;;;;21.36;33.74;99799.31;5068524;28;45352;-76
2023/03/23 07:17:28;;;;;;;;;4.00;4.00;;;;;20.85;34.78;99782.88;5056955;28;46069;-75
2023/03/23 07:19:54;;;;;;;;;4.33;4.33;;;;;20.64;34.49;99789.56;5070113;28;45565;-75
2023/03/23 07:22:20;;;;;;;;;5.00;5.00;;;;;20.40;35.96;99792.75;5056613;28;45441;-73
2023/03/23 07:24:45;;;;;;;;;4.00;4.00;;;;;20.50;35.51;99801.38;5068652;28;45600;-74
2023/03/23 07:27:11;;;;;;;;;7.00;7.00;;;;;20.67;35.52;99801.88;5056073;28;45362;-74
2023/03/23 07:29:38;;;;;;;;;4.00;4.00;;;;;21.39;34.30;99802.75;5060025;28;45486;-76
2023/03/23 07:32:05;;;;;;;;;8.00;8.00;;;;;23.55;31.94;99798.88;5057967;28;45988;-74
2023/03/23 07:34:31;;;;;;;;;8.00;7.67;;;;;24.34;31.07;99792.41;5057628;28;45550;-75
2023/03/23 07:36:57;;;;;;;;;5.67;5.67;;;;;24.45;30.62;99796.47;5060331;28;45386;-77
2023/03/23 07:39:23;;;;;;;;;5.33;4.67;;;;;25.37;30.05;99796.28;5056762;28;45419;-75
2023/03/23 07:41:49;;;;;;;;;7.00;6.67;;;;;25.12;31.00;99798.25;5056973;28;46074;-77
2023/03/23 07:44:15;;;;;;;;;4.67;4.00;;;;;25.91;30.62;99807.31;5057042;28;46114;-75
2023/03/23 07:46:41;;;;;;;;;75.75;63.50;;;;;27.33;28.98;99795.22;5055790;28;45756;-76
2023/03/23 07:49:08;;;;;;;;;45.00;36.75;;;;;28.84;26.61;99782.56;5056746;28;45995;-77
2023/03/23 07:51:34;;;;;;;;;5.67;5.00;;;;;29.84;25.11;99773.91;5056683;28;45544;-76
2023/03/23 07:54:02;;;;;;;;;3.67;3.67;;;;;29.50;24.07;99775.09;5056265;28;45423;-78
2023/03/23 07:56:27;;;;;;;;;16.00;15.33;;;;;29.97;23.98;99779.41;5066826;28;45527;-77
2023/03/23 07:58:53;;;;;;;;;7.67;7.33;;;;;30.00;24.48;99770.25;5056650;28;45461;-78
2023/03/23 08:01:18;;;;;;;;;5.00;4.00;;;;;29.13;23.90;99778.19;5059053;28;45497;-75
2023/03/23 08:03:44;;;;;;;;;8.33;7.67;;;;;28.11;27.79;99791.13;5070121;28;45507;-79
2023/03/23 08:06:10;;;;;;;;;7.00;6.00;;;;;27.41;29.71;99798.38;5059093;28;45614;-75
2023/03/23 08:08:37;;;;;;;;;4.00;4.00;;;;;26.90;30.34;99800.03;5069768;28;45571;-77
2023/03/23 08:11:03;;;;;;;;;5.00;5.00;;;;;26.90;30.14;99800.03;5065899;28;46157;-70
2023/03/23 08:13:29;;;;;;;;;5.33;5.00;;;;;27.96;28.09;99806.22;5059446;28;45843;-70
2023/03/23 08:15:54;;;;;;;;;5.33;4.67;;;;;28.48;27.73;99793.56;5071535;28;45567;-75
2023/03/23 08:18:20;;;;;;;;;10.00;7.00;;;;;28.65;27.90;99798.00;5070138;28;45391;-75
2023/03/23 08:20:49;;;;;;;;;16.00;11.00;;;;;29.37;26.94;99798.31;5056514;28;45469;-77
2023/03/23 08:23:15;;;;;;;;;8.00;6.00;;;;;30.44;25.96;99807.00;5056805;28;45466;-76
2023/03/23 08:25:42;;;;;;;;;4.00;3.33;;;;;31.66;24.69;99805.22;5055935;28;45582;-76
2023/03/23 08:28:09;;;;;;;;;3.00;3.00;;;;;32.83;24.00;99807.69;5056442;28;45600;-75
2023/03/23 08:30:36;;;;;;;;;3.67;3.00;;;;;33.16;22.62;99808.81;5056244;28;46193;-78
2023/03/23 08:33:04;;;;;;;;;3.67;3.67;;;;;33.97;21.49;99798.97;5057532;28;45403;-79
2023/03/23 08:35:30;;;;;;;;;3.00;3.00;;;;;34.12;21.08;99807.69;5059578;28;45564;-78
2023/03/23 08:37:57;;;;;;;;;5.00;4.67;;;;;33.64;20.66;99808.75;5062593;28;45430;-79
2023/03/23 08:40:24;;;;;;;;;9.00;6.00;;;;;33.82;20.63;99803.72;5062462;28;45532;-81
2023/03/23 08:42:51;;;;;;;;;11.67;6.00;;;;;34.68;21.08;99810.44;5062003;28;45744;-75
2023/03/23 08:45:20;;;;;;;;;4.00;3.67;;;;;35.02;20.11;99804.91;5063235;28;45430;-81
2023/03/23 08:47:51;;;;;;;;;4.67;4.33;;;;;35.69;17.99;99790.13;5058356;28;45448;-82
2023/03/23 08:50:22;;;;;;;;;3.67;3.00;;;;;35.49;18.93;99804.56;5056896;28;46202;-70
2023/03/23 08:52:49;;;;;;;;;3.00;3.00;;;;;35.92;19.10;99806.31;5055010;28;45421;-70
2023/03/23 08:55:17;;;;;;;;;4.00;4.00;;;;;36.29;17.92;99803.91;5055765;28;45923;-79
2023/03/23 08:57:43;;;;;;;;;4.33;4.00;;;;;36.52;17.24;99801.81;5038036;28;45350;-73
2023/03/23 09:00:15;;;;;;;;;5.00;4.00;;;;;36.87;17.24;99788.72;5066903;28;45562;-79
2023/03/23 09:02:42;;;;;;;;;8.00;7.67;;;;;36.84;17.09;99795.31;5039892;28;45748;-79
2023/03/23 09:05:12;;;;;;;;;5.67;5.33;;;;;36.69;17.83;99789.44;5075592;28;45547;-76
2023/03/23 09:07:39;;;;;;;;;4.00;3.33;;;;;36.72;17.76;99796.47;5063765;28;45552;-70
2023/03/23 09:10:06;;;;;;;;;5.33;5.00;;;;;37.23;17.68;99795.38;5070150;28;45362;-77
2023/03/23 09:12:31;;;;;;;;;4.33;4.00;;;;;37.31;17.70;99781.03;5071896;28;45313;-78
2023/03/23 09:14:57;;;;;;;;;5.33;5.00;;;;;36.80;17.18;99783.00;5059591;28;45478;-77
2023/03/23 09:17:23;;;;;;;;;4.33;4.00;;;;;36.30;17.73;99789.31;5069549;28;45508;-74
2023/03/23 09:19:48;;;;;;;;;5.00;5.00;;;;;36.65;17.03;99788.00;5055485;28;46170;-70
2023/03/23 09:22:15;;;;;;;;;4.67;4.67;;;;;36.79;17.94;99784.03;5050541;28;45518;-73
2023/03/23 09:24:41;;;;;;;;;6.00;5.00;;;;;36.94;16.97;99782.56;5071935;28;45438;-72
2023/03/23 09:27:07;;;;;;;;;4.00;3.00;;;;;36.64;17.09;99794.44;5037728;28;45432;-77
2023/03/23 09:29:32;;;;;;;;;4.00;3.33;;;;;36.27;18.14;99783.28;5071434;28;45469;-76
2023/03/23 09:31:58;;;;;;;;;7.33;7.33;;;;;36.56;17.11;99781.50;5055591;28;45358;-82
2023/03/23 09:34:23;;;;;;;;;6.33;5.33;;;;;36.35;17.17;99781.59;5061065;28;45598;-70
2023/03/23 09:36:49;;;;;;;;;11.00;10.33;;;;;36.41;17.48;99788.31;5061318;28;45480;-74
2023/03/23 09:39:18;;;;;;;;;4.00;4.00;;;;;36.09;17.82;99770.28;5072046;28;46163;-82
2023/03/23 09:42:18;;;;;;;;;7.33;5.33;;;;;35.77;18.35;99784.88;5064770;28;45450;-72
2023/03/23 09:44:55;;;;;;;;;7.00;5.67;;;;;35.33;18.82;99775.16;5054367;28;45564;-75
2023/03/23 09:47:44;;;;;;;;;4.33;3.33;;;;;34.97;19.07;99783.56;5050772;28;45418;-77
2023/03/23 09:50:15;;;;;;;;;3.33;3.33;;;;;34.36;19.10;99781.34;5055554;28;45607;-70
2023/03/23 09:52:52;;;;;;;;;5.33;4.67;;;;;34.00;20.20;99782.44;5052547;28;45548;-77
2023/03/23 09:55:20;;;;;;;;;5.67;5.00;;;;;33.44;20.17;99775.06;5052247;28;45437;-84
2023/03/23 09:58:12;;;;;;;;;3.00;3.00;;;;;32.98;22.46;99768.63;5055944;28;45537;-75
2023/03/23 10:01:10;;;;;;;;;4.00;4.00;;;;;32.93;23.10;99780.75;5052165;28;45864;-82
2023/03/23 10:03:44;;;;;;;;;5.00;3.67;;;;;32.80;23.53;99781.69;5050917;28;45509;-82
2023/03/23 10:06:12;;;;;;;;;3.67;3.67;;;;;32.52;24.34;99782.00;5056772;28;45452;-70
2023/03/23 10:08:49;;;;;;;;;4.67;4.67;;;;;32.18;25.10;99771.81;5055798;28;45340;-82
2023/03/23 10:11:35;;;;;;;;;3.67;3.67;;;;;31.95;25.41;99775.28;5071499;28;45649;-72
2023/03/23 10:14:07;;;;;;;;;4.33;4.00;;;;;32.05;25.69;99763.75;5062027;28;45382;-71
2023/03/23 10:16:38;;;;;;;;;5.00;5.00;;;;;31.71;25.69;99766.13;5070254;28;45496;-70
2023/03/23 10:19:31;;;;;;;;;4.33;3.33;;;;;31.46;26.45;99766.97;5060920;28;45415;-73
2023/03/23 10:22:06;;;;;;;;;5.00;4.00;;;;;31.90;25.53;99759.41;5051030;28;45506;-74
2023/03/23 10:24:52;;;;;;;;;5.00;4.33;;;;;32.09;25.72;99745.44;5072646;28;45374;-81
2023/03/23 10:28:04;;;;;;;;;5.00;4.00;;;;;32.27;23.92;99749.53;5048340;28;45389;-81
2023/03/23 10:30:32;;;;;;;;;4.67;4.67;;;;;32.11;24.86;99746.19;5070824;28;45279;-82
2023/03/23 10:33:04;;;;;;;;;4.00;4.00;;;;;31.82;24.85;99746.44;5075237;28;45451;-82
2023/03/23 10:35:42;;;;;;;;;5.00;4.00;;;;;31.86;24.75;99736.28;5066190;28;45376;-80
2023/03/23 10:38:26;;;;;;;;;4.00;3.00;;;;;31.59;25.51;99747.19;5078077;28;45576;-82
2023/03/23 10:41:01;;;;;;;;;3.00;3.00;;;;;31.13;25.45;99744.00;5078549;28;45469;-70
2023/03/23 10:43:27;;;;;;;;;3.00;3.00;;;;;30.89;25.76;99735.72;5077418;28;45398;-70
2023/03/23 10:46:15;;;;;;;;;5.33;4.33;;;;;30.58;26.48;99736.91;5077870;28;45481;-75
2023/03/23 10:48:40;;;;;;;;;4.00;4.00;;;;;30.48;26.35;99735.75;5060778;28;45548;-79
2023/03/23 10:51:12;;;;;;;;;3.00;3.00;;;;;30.15;25.95;99734.28;5061250;28;45501;-81
2023/03/23 10:53:49;;;;;;;;;3.67;3.67;;;;;29.83;26.76;99734.50;5078270;28;45308;-80
2023/03/23 10:56:36;;;;;;;;;6.67;5.67;;;;;29.52;27.05;99730.13;5078298;28;45360;-77
2023/03/23 10:59:30;;;;;;;;;5.00;5.00;;;;;29.26;27.87;99729.03;5074341;28;45525;-82
2023/03/23 11:02:02;;;;;;;;;5.67;5.00;;;;;29.49;27.79;99719.56;5052653;28;45344;-79
2023/03/23 11:04:30;;;;;;;;;5.00;4.33;;;;;29.73;28.21;99717.22;5058175;28;45856;-69
2023/03/23 11:07:01;;;;;;;;;4.00;4.00;;;;;29.51;27.88;99701.50;5073566;28;45496;-81
2023/03/23 11:09:51;;;;;;;;;4.00;3.33;;;;;29.93;27.12;99707.88;5057059;28;45498;-69
2023/03/23 11:12:22;;;;;;;;;3.33;3.33;;;;;30.04;26.27;99680.22;5054530;28;45393;-73
2023/03/23 11:14:47;;;;;;;;;4.33;4.33;;;;;30.24;25.78;99682.50;5062072;28;46114;-77
2023/03/23 11:17:26;;;;;;;;;4.67;4.33;;;;;30.17;26.46;99686.56;5063924;28;45577;-69
2023/03/23 11:19:54;;;;;;;;;3.33;3.33;;;;;30.14;26.38;99689.44;5055175;28;45443;-76
2023/03/23 11:22:27;;;;;;;;;5.67;4.67;;;;;30.22;25.89;99678.16;5067188;28;45582;-74
2023/03/23 11:24:55;;;;;;;;;6.00;5.67;;;;;30.28;24.13;99678.66;5056449;28;47853;-82
2023/03/23 11:27:23;;;;;;;;;4.00;3.33;;;;;30.53;21.05;99663.56;5056877;28;45522;-76
2023/03/23 11:30:08;;;;;;;;;4.00;3.67;;;;;30.55;21.71;99667.03;5055967;28;45438;-79
2023/03/23 11:32:35;;;;;;;;;3.00;3.00;;;;;30.57;21.89;99657.00;5055487;28;45423;-83
2023/03/23 11:35:05;;;;;;;;;3.67;3.67;;;;;30.52;21.28;99660.03;5055391;28;45425;-79
2023/03/23 11:37:43;;;;;;;;;3.00;3.00;;;;;30.46;21.46;99655.03;5058154;28;45641;-72
2023/03/23 11:40:12;;;;;;;;;1.67;1.67;;;;;30.36;21.46;99659.28;5054123;28;45643;-71
2023/03/23 11:42:46;;;;;;;;;2.00;2.00;;;;;30.33;21.22;99656.81;5068698;28;45465;-72
2023/03/23 11:45:26;;;;;;;;;5.33;4.33;;;;;30.28;21.18;99653.50;5057326;28;46025;-77